createdAt,value
2022-11-14T00:00:35.006Z,72.94
2022-11-14T00:03:06.958Z,73.60
2022-11-14T00:05:40.160Z,74.08
2022-11-14T00:08:09.064Z,74.12
2022-11-14T00:10:36.378Z,74.25
2022-11-14T00:13:03.587Z,74.06
2022-11-14T00:15:30.773Z,74.26
2022-11-14T00:17:58.075Z,73.54
2022-11-14T00:20:25.413Z,73.56
2022-11-14T00:22:52.682Z,73.91
2022-11-14T00:25:19.877Z,74.40
2022-11-14T00:27:47.179Z,74.94
2022-11-14T00:30:14.868Z,75.76
2022-11-14T00:32:42.066Z,76.08
2022-11-14T00:35:09.700Z,76.57
2022-11-14T00:37:37.048Z,76.23
2022-11-14T00:40:05.149Z,77.11
2022-11-14T00:42:32.496Z,76.90
2022-11-14T00:44:59.844Z,76.09
2022-11-14T00:47:27.054Z,75.80
2022-11-14T00:49:54.431Z,75.03
2022-11-14T00:52:21.651Z,74.73
2022-11-14T00:54:49.064Z,74.79
2022-11-14T00:57:16.244Z,74.72
2022-11-14T00:59:43.432Z,75.38
2022-11-14T01:02:10.782Z,75.29
2022-11-14T01:04:37.895Z,75.59
2022-11-14T01:07:05.427Z,75.08
2022-11-14T01:09:32.872Z,75.46
2022-11-14T01:12:00.474Z,75.66
2022-11-14T01:14:27.624Z,75.16
2022-11-14T01:16:54.799Z,76.04
2022-11-14T01:19:21.972Z,75.91
2022-11-14T01:21:49.089Z,75.42
2022-11-14T01:24:16.291Z,76.15
2022-11-14T01:26:43.510Z,76.18
2022-11-14T01:29:10.692Z,76.03
2022-11-14T01:31:37.966Z,76.92
2022-11-14T01:34:05.262Z,77.22
2022-11-14T01:36:32.598Z,76.73
2022-11-14T01:38:59.766Z,76.99
2022-11-14T01:41:27.061Z,76.79
2022-11-14T01:43:54.575Z,77.45
2022-11-14T01:46:33.651Z,76.99
2022-11-14T01:49:18.480Z,76.57
2022-11-14T01:51:53.569Z,77.00
2022-11-14T01:54:29.814Z,76.71
2022-11-14T01:57:01.466Z,76.56
2022-11-14T01:59:36.724Z,76.44
2022-11-14T02:02:12.370Z,76.72
2022-11-14T02:04:44.587Z,76.36
2022-11-14T02:07:13.411Z,76.52
2022-11-14T02:09:46.065Z,76.89
2022-11-14T02:12:17.372Z,76.80
2022-11-14T02:14:48.452Z,77.16
2022-11-14T02:17:33.199Z,77.83
2022-11-14T02:20:13.010Z,77.72
2022-11-14T02:22:42.521Z,77.36
2022-11-14T02:25:11.809Z,76.96
2022-11-14T02:27:40.832Z,76.43
2022-11-14T02:30:15.705Z,77.73
2022-11-14T02:33:10.490Z,77.82
2022-11-14T02:35:30.301Z,78.25
2022-11-14T02:37:57.841Z,78.88
2022-11-14T02:40:25.601Z,79.00
2022-11-14T02:42:52.876Z,79.66
2022-11-14T02:45:20.962Z,79.64
2022-11-14T02:47:48.371Z,80.04
2022-11-14T02:50:15.753Z,80.40
2022-11-14T02:52:42.950Z,79.53
2022-11-14T02:55:11.046Z,80.20
2022-11-14T02:57:38.591Z,80.24
2022-11-14T03:00:11.831Z,80.32
2022-11-14T03:02:41.827Z,79.19
2022-11-14T03:05:09.327Z,78.90
2022-11-14T03:07:36.632Z,79.20
2022-11-14T03:10:05.184Z,78.64
2022-11-14T03:12:32.493Z,78.67
2022-11-14T03:14:59.656Z,78.91
2022-11-14T03:17:26.944Z,79.32
2022-11-14T03:19:55.865Z,79.61
2022-11-14T03:22:23.168Z,80.08
2022-11-14T03:24:50.485Z,81.00
2022-11-14T03:27:17.841Z,80.90
2022-11-14T03:29:45.214Z,80.99
2022-11-14T03:32:12.525Z,81.52
2022-11-14T03:34:39.744Z,82.03
2022-11-14T03:37:06.926Z,81.05
2022-11-14T03:39:34.147Z,80.14
2022-11-14T03:42:01.380Z,80.58
2022-11-14T03:44:28.629Z,80.65
2022-11-14T03:46:55.835Z,81.41
2022-11-14T03:49:23.011Z,81.55
2022-11-14T03:51:50.850Z,81.42
2022-11-14T03:54:18.202Z,80.75
2022-11-14T03:56:45.478Z,79.88
2022-11-14T03:59:13.712Z,80.55
2022-11-14T04:01:41.067Z,80.74
2022-11-14T04:04:08.556Z,81.32
2022-11-14T04:06:35.829Z,81.03
2022-11-14T04:09:03.313Z,82.12
2022-11-14T04:11:30.453Z,80.33
2022-11-14T04:13:57.689Z,81.27
2022-11-14T04:16:24.900Z,80.50
2022-11-14T04:18:52.093Z,80.54
2022-11-14T04:21:19.248Z,79.82
2022-11-14T04:23:46.738Z,80.28
2022-11-14T04:26:14.010Z,81.18
2022-11-14T04:28:41.186Z,80.90
2022-11-14T04:31:08.619Z,81.20
2022-11-14T04:33:36.015Z,81.27
2022-11-14T04:36:03.593Z,80.71
2022-11-14T04:38:31.228Z,80.29
2022-11-14T04:40:58.904Z,80.88
2022-11-14T04:43:26.118Z,80.69
2022-11-14T04:45:53.300Z,81.18
2022-11-14T04:48:20.487Z,80.75
2022-11-14T04:50:47.649Z,80.56
2022-11-14T04:53:14.949Z,80.80
2022-11-14T04:55:43.781Z,80.47
2022-11-14T04:58:10.964Z,80.20
2022-11-14T05:00:38.175Z,80.21
2022-11-14T05:03:05.372Z,79.52
2022-11-14T05:05:36.936Z,80.48
2022-11-14T05:08:07.893Z,80.26
2022-11-14T05:10:35.179Z,80.15
2022-11-14T05:13:02.463Z,80.41
2022-11-14T05:15:29.808Z,80.30
2022-11-14T05:17:59.095Z,80.50
2022-11-14T05:20:26.280Z,80.44
2022-11-14T05:22:55.516Z,80.04
2022-11-14T05:25:23.806Z,79.90
2022-11-14T05:27:51.624Z,80.11
2022-11-14T05:30:19.172Z,79.78
2022-11-14T05:32:46.869Z,79.17
2022-11-14T05:35:14.743Z,79.72
2022-11-14T05:37:42.243Z,80.05
2022-11-14T05:40:10.433Z,80.10
2022-11-14T05:42:37.554Z,78.97
2022-11-14T05:45:05.470Z,80.34
2022-11-14T05:47:32.577Z,80.44
2022-11-14T05:50:00.681Z,80.78
2022-11-14T05:52:27.846Z,80.86
2022-11-14T05:54:55.283Z,80.83
2022-11-14T05:57:22.555Z,80.57
2022-11-14T05:59:49.679Z,80.34
2022-11-14T06:22:31.370Z,79.93
2022-11-14T06:24:58.555Z,79.41
2022-11-14T06:27:25.708Z,80.72
2022-11-14T06:29:52.967Z,80.71
2022-11-14T06:32:21.536Z,80.82
2022-11-14T06:34:48.786Z,81.21
2022-11-14T06:37:16.008Z,80.87
2022-11-14T06:39:43.201Z,80.63
2022-11-14T06:42:10.393Z,80.11
2022-11-14T06:44:37.594Z,79.82
2022-11-14T06:47:04.920Z,80.42
2022-11-14T06:49:35.343Z,79.13
2022-11-14T06:52:06.707Z,79.26
2022-11-14T06:54:34.021Z,79.84
2022-11-14T06:57:01.428Z,80.04
2022-11-14T06:59:28.797Z,80.53
2022-11-14T07:01:56.122Z,79.97
2022-11-14T07:04:23.379Z,79.94
2022-11-14T07:06:50.700Z,79.57
2022-11-14T07:09:18.398Z,79.79
2022-11-14T07:11:46.909Z,79.42
2022-11-14T07:14:14.132Z,79.77
2022-11-14T07:16:41.511Z,80.28
2022-11-14T07:19:12.383Z,80.14
2022-11-14T07:21:40.436Z,80.50
2022-11-14T07:24:07.891Z,79.74
2022-11-14T07:26:35.101Z,80.32
2022-11-14T07:29:03.050Z,80.08
2022-11-14T07:31:30.742Z,79.30
2022-11-14T07:33:57.923Z,79.32
2022-11-14T07:36:25.088Z,80.51
2022-11-14T07:38:52.221Z,80.21
2022-11-14T07:41:19.533Z,78.65
2022-11-14T07:43:47.079Z,80.22
2022-11-14T07:46:17.385Z,80.66
2022-11-14T07:48:45.961Z,80.99
2022-11-14T07:51:19.209Z,81.07
2022-11-14T07:53:46.649Z,80.96
2022-11-14T07:56:14.474Z,80.38
2022-11-14T07:58:43.239Z,79.89
2022-11-14T08:01:13.354Z,80.07
2022-11-14T08:03:45.322Z,80.62
2022-11-14T08:06:16.160Z,79.75
2022-11-14T08:08:43.608Z,79.62
2022-11-14T08:11:11.596Z,80.15
2022-11-14T08:13:38.829Z,78.95
2022-11-14T08:16:12.929Z,79.39
2022-11-14T08:18:41.163Z,79.13
2022-11-14T08:21:08.760Z,80.15
2022-11-14T08:23:36.225Z,80.30
2022-11-14T08:26:03.504Z,80.16
2022-11-14T08:28:30.993Z,80.35
2022-11-14T08:31:03.947Z,80.76
2022-11-14T08:33:32.297Z,80.92
2022-11-14T08:36:03.899Z,81.41
2022-11-14T08:38:35.323Z,81.52
2022-11-14T08:41:03.672Z,82.25
2022-11-14T08:43:32.604Z,81.48
2022-11-14T08:46:05.333Z,81.87
2022-11-14T08:48:33.627Z,81.15
2022-11-14T08:51:07.858Z,81.74
2022-11-14T08:53:35.562Z,81.47
2022-11-14T08:56:03.358Z,81.84
2022-11-14T08:58:32.798Z,81.80
2022-11-14T09:01:06.240Z,82.21
2022-11-14T09:03:34.417Z,81.62
2022-11-14T09:06:03.469Z,82.17
2022-11-14T09:08:31.833Z,82.25
2022-11-14T09:11:05.526Z,82.40
2022-11-14T09:13:34.963Z,82.09
2022-11-14T09:16:02.992Z,82.29
2022-11-14T09:18:31.699Z,81.24
2022-11-14T09:21:05.685Z,81.17
2022-11-14T09:23:33.701Z,82.04
2022-11-14T09:26:09.246Z,81.93
2022-11-14T09:28:37.556Z,82.32
2022-11-14T09:31:11.038Z,82.87
2022-11-14T09:33:38.954Z,83.09
2022-11-14T09:36:10.667Z,82.38
2022-11-14T09:38:38.936Z,83.07
2022-11-14T09:41:09.115Z,82.47
2022-11-14T09:44:22.374Z,82.44
2022-11-14T09:47:01.588Z,82.68
2022-11-14T09:49:43.530Z,82.99
2022-11-14T09:52:30.047Z,81.43
2022-11-14T09:55:01.699Z,82.46
2022-11-14T09:57:29.802Z,82.19
2022-11-14T09:59:57.550Z,82.05
2022-11-14T10:02:52.612Z,82.20
2022-11-14T10:05:58.859Z,82.71
2022-11-14T10:08:34.826Z,82.20
2022-11-14T10:11:24.392Z,81.72
2022-11-14T10:14:40.606Z,81.90
2022-11-14T10:17:32.712Z,81.84
2022-11-14T10:20:16.322Z,81.91
2022-11-14T10:23:07.503Z,82.29
2022-11-14T10:26:10.225Z,81.54
2022-11-14T10:29:21.848Z,82.56
2022-11-14T10:32:17.093Z,82.57
2022-11-14T10:34:59.890Z,83.19
2022-11-14T10:37:55.352Z,82.47
2022-11-14T10:40:31.350Z,83.38
2022-11-14T10:43:22.068Z,83.08
2022-11-14T10:46:02.778Z,81.43
2022-11-14T10:48:39.607Z,82.03
2022-11-14T10:51:36.250Z,83.07
2022-11-14T10:54:38.788Z,83.55
2022-11-14T10:57:20.628Z,83.22
2022-11-14T10:59:48.561Z,81.41
2022-11-14T11:02:15.931Z,81.00
2022-11-14T11:04:45.382Z,81.37
2022-11-14T11:07:32.455Z,81.56
2022-11-14T11:10:22.196Z,81.75
2022-11-14T11:12:54.239Z,82.13
2022-11-14T11:15:27.479Z,82.85
2022-11-14T11:17:59.697Z,81.13
2022-11-14T11:20:41.771Z,82.62
2022-11-14T11:23:11.536Z,82.09
2022-11-14T11:25:40.594Z,82.34
2022-11-14T11:28:13.419Z,82.33
2022-11-14T11:30:54.799Z,82.44
2022-11-14T11:33:21.913Z,82.25
2022-11-14T11:35:53.353Z,82.48
2022-11-14T11:38:22.153Z,81.57
2022-11-14T11:40:54.760Z,81.29
2022-11-14T11:43:39.907Z,81.53
2022-11-14T11:46:20.510Z,82.53
2022-11-14T11:48:54.342Z,81.97
2022-11-14T11:51:26.972Z,82.59
2022-11-14T11:54:15.848Z,82.17
2022-11-14T11:56:48.237Z,82.14
2022-11-14T11:59:52.179Z,81.99
2022-11-14T12:02:26.370Z,81.90
2022-11-14T12:04:56.277Z,81.85
2022-11-14T12:07:40.208Z,82.51
2022-11-14T12:10:24.903Z,82.27
2022-11-14T12:13:23.890Z,82.10
2022-11-14T12:16:13.358Z,82.39
2022-11-14T12:19:17.381Z,82.59
2022-11-14T12:22:03.008Z,80.63
2022-11-14T12:24:50.821Z,80.09
2022-11-14T12:27:20.891Z,79.83
2022-11-14T12:30:09.904Z,79.80
2022-11-14T12:33:36.049Z,79.06
2022-11-14T12:36:08.991Z,79.13
2022-11-14T12:39:03.097Z,78.90
2022-11-14T12:41:38.091Z,78.72
2022-11-14T12:44:28.425Z,78.39
2022-11-14T12:47:07.980Z,78.25
2022-11-14T12:49:53.108Z,78.48
2022-11-14T12:55:25.944Z,78.46
2022-11-14T12:58:04.800Z,78.87
2022-11-14T13:00:36.374Z,78.63
2022-11-14T13:04:11.066Z,79.52
2022-11-14T13:07:07.534Z,79.39
2022-11-14T13:10:01.432Z,79.78
2022-11-14T13:12:54.822Z,78.43
2022-11-14T13:16:10.145Z,78.15
2022-11-14T13:19:09.414Z,77.58
2022-11-14T13:21:46.322Z,76.83
2022-11-14T13:24:20.530Z,76.41
2022-11-14T13:26:54.160Z,76.49
2022-11-14T13:29:39.661Z,76.75
2022-11-14T13:32:13.463Z,76.35
2022-11-14T13:35:02.715Z,76.28
2022-11-14T13:37:56.872Z,75.13
2022-11-14T13:40:45.889Z,74.67
2022-11-14T13:43:47.972Z,74.01
2022-11-14T13:46:33.205Z,74.21
2022-11-14T13:50:02.374Z,73.40
2022-11-14T13:52:35.367Z,73.05
2022-11-14T13:55:06.994Z,73.15
2022-11-14T13:57:55.584Z,73.25
2022-11-14T14:00:24.609Z,72.49
2022-11-14T14:03:17.703Z,72.60
2022-11-14T14:06:05.292Z,71.71
2022-11-14T14:09:12.783Z,72.06
2022-11-14T14:12:14.235Z,71.26
2022-11-14T14:15:07.356Z,71.18
2022-11-14T14:18:10.817Z,71.29
2022-11-14T14:21:26.274Z,71.56
2022-11-14T14:24:17.946Z,70.98
2022-11-14T14:27:12.376Z,71.32
2022-11-14T14:29:51.304Z,71.41
2022-11-14T14:32:21.323Z,72.03
2022-11-14T14:34:49.173Z,71.49
2022-11-14T14:37:26.376Z,71.32
2022-11-14T14:40:09.253Z,71.11
2022-11-14T14:42:46.004Z,71.21
2022-11-14T14:45:20.833Z,70.82
2022-11-14T14:47:58.596Z,71.35
2022-11-14T14:50:41.802Z,71.59
2022-11-14T14:53:23.505Z,72.56
2022-11-14T14:56:22.626Z,72.49
2022-11-14T14:58:49.777Z,73.25
2022-11-14T15:01:25.928Z,73.66
2022-11-14T15:04:02.928Z,73.84
2022-11-14T15:06:32.637Z,74.24
2022-11-14T15:09:25.779Z,74.13
2022-11-14T15:11:58.339Z,74.72
2022-11-14T15:14:33.805Z,75.02
2022-11-14T15:17:01.549Z,74.49
2022-11-14T15:19:42.296Z,74.67
2022-11-14T15:22:15.582Z,74.81
2022-11-14T15:27:29.218Z,75.04
2022-11-14T15:30:05.507Z,75.07
2022-11-14T15:38:46.415Z,74.68
2022-11-14T15:44:33.846Z,74.74
2022-11-14T15:47:03.124Z,75.08
2022-11-14T15:49:30.811Z,74.92
2022-11-14T15:52:03.352Z,74.95
2022-11-14T15:54:37.814Z,74.64
2022-11-14T15:57:17.399Z,74.58
2022-11-14T15:59:45.335Z,74.92
2022-11-14T16:02:21.636Z,74.71
2022-11-14T16:04:52.448Z,74.62
2022-11-14T16:10:08.449Z,75.02
2022-11-14T16:12:55.627Z,75.16
2022-11-14T16:15:29.213Z,75.13
2022-11-14T16:23:44.317Z,75.12
2022-11-14T16:34:42.731Z,75.13
2022-11-14T16:37:21.848Z,74.99
2022-11-14T16:55:04.396Z,75.45
2022-11-14T16:57:32.117Z,75.57
2022-11-14T17:00:00.193Z,75.63
2022-11-14T17:02:27.489Z,75.13
2022-11-14T17:04:55.593Z,75.29
2022-11-14T17:07:23.766Z,75.28
2022-11-14T17:09:51.065Z,75.12
2022-11-14T17:12:18.361Z,75.63
2022-11-14T17:14:46.063Z,75.67
2022-11-14T17:17:13.437Z,75.47
2022-11-14T17:19:46.650Z,75.04
2022-11-14T17:22:16.413Z,74.60
2022-11-14T17:24:43.715Z,75.25
2022-11-14T17:27:13.046Z,74.97
2022-11-14T17:29:41.264Z,74.48
2022-11-14T17:32:09.044Z,74.83
2022-11-14T17:37:39.439Z,74.93
2022-11-14T17:40:11.472Z,74.51
2022-11-14T17:42:42.547Z,74.81
2022-11-14T17:45:10.554Z,74.81
2022-11-14T17:47:38.793Z,74.82
2022-11-14T17:50:06.840Z,74.73
2022-11-14T17:52:34.088Z,74.59
2022-11-14T17:55:01.887Z,74.42
2022-11-14T17:57:30.628Z,74.84
2022-11-14T18:13:22.614Z,74.12
2022-11-14T18:15:49.833Z,73.83
2022-11-14T18:18:19.546Z,73.61
2022-11-14T18:20:48.063Z,74.25
2022-11-14T18:23:16.276Z,74.13
2022-11-14T18:25:43.904Z,74.08
2022-11-14T18:30:57.077Z,73.97
2022-11-14T18:33:24.368Z,74.41
2022-11-14T18:36:09.704Z,74.42
2022-11-14T18:38:44.251Z,74.33
2022-11-14T18:41:19.721Z,73.82
2022-11-14T18:43:47.678Z,73.81
2022-11-14T18:46:22.475Z,74.96
2022-11-14T18:58:42.336Z,74.25
2022-11-14T19:01:22.030Z,73.90
2022-11-14T19:37:25.633Z,74.21
2022-11-14T19:40:05.243Z,74.14
2022-11-14T19:59:39.180Z,73.20
2022-11-14T20:02:09.897Z,73.67
2022-11-14T20:16:25.911Z,73.77
2022-11-14T20:18:59.102Z,75.03
2022-11-14T20:24:27.726Z,73.29
2022-11-14T20:26:57.756Z,73.25
2022-11-14T20:29:46.206Z,73.97
2022-11-14T20:32:20.073Z,73.88
2022-11-14T21:14:02.888Z,73.30
2022-11-14T21:19:28.979Z,73.56
2022-11-14T21:39:08.702Z,72.96
2022-11-14T21:41:40.448Z,73.10
2022-11-14T21:44:14.663Z,73.36
2022-11-14T21:46:45.395Z,73.69
2022-11-14T21:49:14.348Z,74.07
2022-11-14T21:51:49.802Z,74.13
2022-11-14T21:54:32.541Z,73.91
